Americus, KS

5:49 PM CST on February 07, 2016 (GMT -0600)
Timmerman School Area | | Change Station
CLOSE
Current Station
Personal Weather Station
Location: Emporia, KS
Elevation: 1214 ft
Nearby Weather Stations
Active Advisory: Wind Advisory

Elev 1214 ft 38.43 °N, 96.22 °W | Updated 10 seconds ago

Partly Cloudy
Partly Cloudy
47.1 °F
Feels Like 39 °F
N
22.8
Wind Variable Wind from West
Gusts 30.0 mph

Today
High -- | Low -- °F
--% Chance of Precip.
Yesterday
High -- | Low -- °F
Precip. -- in
Pressure 30.11 in
Visibility 10.0 miles
Clouds Clear
Windchill 39 °F
Dew Point 10 °F
Humidity 22%
Rainfall 0.02 in
Snow Depth Not available.
7:25 AM 5:53 PM
Waning Crescent, 1% visible
METAR KEMP 072253Z AUTO 31016G32KT 10SM CLR 09/M12 A3008 RMK AO2 PK WND 30033/2222 SLP194 T00941122
Pressure 30.11 in
Visibility 10.0 miles
Clouds Clear
Windchill 39 °F
Dew Point 10 °F
Humidity 22%
Rainfall 0.02 in
Snow Depth Not available.
7:25 AM 5:53 PM
Waning Crescent, 1% visible
METAR KEMP 072253Z AUTO 31016G32KT 10SM CLR 09/M12 A3008 RMK AO2 PK WND 30033/2222 SLP194 T00941122

10-Day Weather Forecast

Almanac

Astronomy

Feb. 07, 2016 Rise Set
Actual Time
Civil Twilight
Nautical Twilight
Astronomical Twilight
Moon
Length of Visible Light
Length of Day
Tomorrow will be .
, % of the Moon is Illuminated

Today's Extremes

State Highs State Lows

Community

WunderPhotos

Upload Photos

1,891,329 photos uploaded!

WunderBlog® & News

Nearby

Air Quality

  Air Quality AQ Index Pollutant
Not available.

Snow Depth

Station Depth Elevation

Earthquake Activity

City Distance Mag. Time & Date
Minimum magnitude displayed is 2.5.

Coastal Water Temperatures

Place Temperature

Stations

Nearby Weather Stations

Station Location Temp. Windchill Dew Point Humidity Wind Precip. Elev Updated Type
                   

Watches & Warnings

Wind Advisory
Issued: 3:26 PM CST Feb. 7, 2016 – National Weather Service

... Wind Advisory remains in effect from 8 am to 6 PM CST Monday...

* timing... wind speeds are expected to increase shortly after
sunrise and continue through the late afternoon.

* Winds... northwest winds will be sustained from 25 to 35 mph
with gusts around 45 mph.

* Impacts... loose and lightweight objects may be blown around by
the wind. Motorists should keep both hands on the steering
wheel. Light snow or flurries are also possible... and this
wind would combine with any falling snow to create greatly
reduced and quickly changing visibilities.

Precautionary/preparedness actions...

A Wind Advisory means that sustained winds of 30 mph or gusts to
45 mph are expected. Winds this strong can make driving
difficult... especially for high profile vehicles. Use extra
caution.